Monterey Park, CA (91756)

5:38 AM PST on February 27, 2015 (GMT -0800)
Hillcrest | Change Station
CLOSE
Current Station
Personal Weather Station
Location: Monterey Park, CA
Elevation: 495 ft
Nearby Weather Stations

Elev 495 ft 34.05 °N, 118.11 °W | Updated 10 minutes ago

Overcast
Overcast
52.2 °F
Feels Like 52.2 °F
N
2.2
Wind Variable Wind from NE

Today
High -- | Low -- °F
--% Chance of Precip.
Yesterday
High -- | Low -- °F
Precip. -- in
6:23 AM 5:47 PM
Waxing Gibbous, 68% visible
Pressure 29.83 in
Visibility 10.0 miles
Clouds Mostly Cloudy 2200 ft
Dew Point 52 °F
Humidity 99%
Rainfall 0.00 in
Snow Depth Not available.
UV 0 out of 12
Pollen 8.60 out of 12
Air Quality Not available.
Flu Activity Not available.
METAR KHHR 271253Z AUTO 08003KT 10SM BKN022 14/11 A2983 RMK AO2 SLP100 T01390111

More Conditions Fewer Conditions

Pressure 29.83 in
Visibility 10.0 miles
Clouds Mostly Cloudy 2200 ft
Dew Point 52 °F
Humidity 99%
Rainfall 0.00 in
Snow Depth Not available.
UV 0 out of 12
Pollen 8.60 out of 12
Air Quality Not available.
Flu Activity Not available.
METAR KHHR 271253Z AUTO 08003KT 10SM BKN022 14/11 A2983 RMK AO2 SLP100 T01390111

More Conditions Fewer Conditions

10-Day Weather Forecast

Almanac

Astronomy

Feb. 27, 2015 Rise Set
Actual Time
Civil Twilight
Nautical Twilight
Astronomical Twilight
Moon
Length of Visible Light
Length of Day
Tomorrow will be .
, % of the Moon is Illuminated

Today's Extremes

State Highs State Lows

Community

WunderPhotos

Upload Photos

1,800,673 photos uploaded!

WunderBlogs® & News

Nearby

Air Quality

  Air Quality AQ Index Pollutant
Not available.

Snow Depth

Station Depth Elevation

Earthquake Activity

City Distance Mag. Time & Date
Minimum magnitude displayed is 2.5.

Coastal Water Temperatures

Place Temperature

Nearby Weather Stations